sensor_id;sensor_type;location;lat;lon;timestamp;pressure;altitude;pressure_sealevel;temperature;humidity
9784;BME280;4931;44.874;-1.092;2024-01-25T00:01:59;103374.66;;;8.21;100.00
9784;BME280;4931;44.874;-1.092;2024-01-25T00:04:24;103375.31;;;8.23;100.00
9784;BME280;4931;44.874;-1.092;2024-01-25T00:06:50;103370.66;;;8.17;100.00
9784;BME280;4931;44.874;-1.092;2024-01-25T00:09:16;103380.53;;;8.18;100.00
9784;BME280;4931;44.874;-1.092;2024-01-25T00:11:42;103380.69;;;8.09;100.00
9784;BME280;4931;44.874;-1.092;2024-01-25T00:14:09;103372.41;;;7.96;100.00
9784;BME280;4931;44.874;-1.092;2024-01-25T00:16:34;103375.94;;;7.90;100.00
9784;BME280;4931;44.874;-1.092;2024-01-25T00:18:59;103378.66;;;7.90;100.00
9784;BME280;4931;44.874;-1.092;2024-01-25T00:21:25;103379.94;;;7.94;100.00
9784;BME280;4931;44.874;-1.092;2024-01-25T00:23:50;103379.94;;;7.94;100.00
9784;BME280;4931;44.874;-1.092;2024-01-25T00:26:16;103385.88;;;7.97;100.00
9784;BME280;4931;44.874;-1.092;2024-01-25T00:28:41;103378.25;;;7.93;100.00
9784;BME280;4931;44.874;-1.092;2024-01-25T00:31:07;103384.16;;;7.96;100.00
9784;BME280;4931;44.874;-1.092;2024-01-25T00:33:32;103373.50;;;8.02;100.00
9784;BME280;4931;44.874;-1.092;2024-01-25T00:35:58;103374.97;;;8.04;100.00
9784;BME280;4931;44.874;-1.092;2024-01-25T00:38:23;103376.94;;;8.10;100.00
9784;BME280;4931;44.874;-1.092;2024-01-25T00:40:49;103361.78;;;8.08;100.00
9784;BME280;4931;44.874;-1.092;2024-01-25T00:43:15;103367.81;;;8.03;100.00
9784;BME280;4931;44.874;-1.092;2024-01-25T00:45:40;103349.00;;;7.87;100.00
9784;BME280;4931;44.874;-1.092;2024-01-25T00:48:06;103347.47;;;7.77;100.00
9784;BME280;4931;44.874;-1.092;2024-01-25T00:50:32;103336.44;;;7.71;100.00
9784;BME280;4931;44.874;-1.092;2024-01-25T00:52:58;103331.44;;;7.74;100.00
9784;BME280;4931;44.874;-1.092;2024-01-25T00:55:24;103331.06;;;7.77;100.00
9784;BME280;4931;44.874;-1.092;2024-01-25T00:57:49;103319.06;;;7.78;100.00
9784;BME280;4931;44.874;-1.092;2024-01-25T01:00:17;103315.13;;;7.88;100.00
9784;BME280;4931;44.874;-1.092;2024-01-25T01:02:44;103323.59;;;7.93;100.00
9784;BME280;4931;44.874;-1.092;2024-01-25T01:05:10;103305.53;;;7.92;100.00
9784;BME280;4931;44.874;-1.092;2024-01-25T01:07:42;103296.66;;;7.90;100.00
9784;BME280;4931;44.874;-1.092;2024-01-25T01:10:08;103303.38;;;7.87;100.00
9784;BME280;4931;44.874;-1.092;2024-01-25T01:12:34;103294.97;;;7.89;100.00
9784;BME280;4931;44.874;-1.092;2024-01-25T01:15:00;103294.59;;;7.92;100.00
9784;BME280;4931;44.874;-1.092;2024-01-25T01:17:25;103289.13;;;7.92;100.00
9784;BME280;4931;44.874;-1.092;2024-01-25T01:19:51;103290.41;;;7.96;100.00
9784;BME280;4931;44.874;-1.092;2024-01-25T01:22:16;103283.69;;;7.98;100.00
9784;BME280;4931;44.874;-1.092;2024-01-25T01:24:42;103265.97;;;7.94;100.00
9784;BME280;4931;44.874;-1.092;2024-01-25T01:27:07;103260.88;;;7.85;100.00
9784;BME280;4931;44.874;-1.092;2024-01-25T01:29:33;103247.78;;;7.73;100.00
9784;BME280;4931;44.874;-1.092;2024-01-25T01:31:58;103244.41;;;7.71;100.00
9784;BME280;4931;44.874;-1.092;2024-01-25T01:34:24;103231.59;;;7.72;100.00
9784;BME280;4931;44.874;-1.092;2024-01-25T01:36:49;103245.69;;;7.75;100.00
9784;BME280;4931;44.874;-1.092;2024-01-25T01:39:15;103230.59;;;7.79;100.00
9784;BME280;4931;44.874;-1.092;2024-01-25T01:41:40;103236.53;;;7.90;100.00
9784;BME280;4931;44.874;-1.092;2024-01-25T01:44:05;103231.88;;;7.84;100.00
9784;BME280;4931;44.874;-1.092;2024-01-25T01:46:36;103234.59;;;7.84;100.00
9784;BME280;4931;44.874;-1.092;2024-01-25T01:49:06;103236.94;;;7.87;100.00
9784;BME280;4931;44.874;-1.092;2024-01-25T01:51:33;103233.53;;;7.78;100.00
9784;BME280;4931;44.874;-1.092;2024-01-25T01:54:00;103232.28;;;7.80;100.00
9784;BME280;4931;44.874;-1.092;2024-01-25T01:56:27;103227.25;;;7.84;100.00
9784;BME280;4931;44.874;-1.092;2024-01-25T01:58:58;103229.00;;;7.92;100.00
9784;BME280;4931;44.874;-1.092;2024-01-25T02:01:25;103230.22;;;7.89;100.00
9784;BME280;4931;44.874;-1.092;2024-01-25T02:03:51;103237.41;;;7.97;100.00
9784;BME280;4931;44.874;-1.092;2024-01-25T02:06:16;103242.47;;;8.00;100.00
9784;BME280;4931;44.874;-1.092;2024-01-25T02:08:42;103243.09;;;8.02;100.00
9784;BME280;4931;44.874;-1.092;2024-01-25T02:11:07;103249.22;;;8.04;100.00
9784;BME280;4931;44.874;-1.092;2024-01-25T02:13:34;103248.81;;;8.07;100.00
9784;BME280;4931;44.874;-1.092;2024-01-25T02:16:00;103244.00;;;8.09;100.00
9784;BME280;4931;44.874;-1.092;2024-01-25T02:18:26;103250.94;;;8.05;100.00
9784;BME280;4931;44.874;-1.092;2024-01-25T02:20:51;103250.03;;;7.98;100.00
9784;BME280;4931;44.874;-1.092;2024-01-25T02:23:17;103253.41;;;8.00;100.00
9784;BME280;4931;44.874;-1.092;2024-01-25T02:25:42;103257.63;;;8.03;100.00
9784;BME280;4931;44.874;-1.092;2024-01-25T02:28:08;103240.78;;;7.99;100.00
9784;BME280;4931;44.874;-1.092;2024-01-25T02:30:33;103256.59;;;8.04;100.00
9784;BME280;4931;44.874;-1.092;2024-01-25T02:32:58;103250.94;;;8.05;100.00
9784;BME280;4931;44.874;-1.092;2024-01-25T02:35:24;103244.56;;;7.98;100.00
9784;BME280;4931;44.874;-1.092;2024-01-25T02:37:49;103246.00;;;7.94;100.00
9784;BME280;4931;44.874;-1.092;2024-01-25T02:40:16;103236.13;;;7.93;100.00
9784;BME280;4931;44.874;-1.092;2024-01-25T02:42:41;103247.25;;;7.91;100.00
9784;BME280;4931;44.874;-1.092;2024-01-25T02:45:07;103243.28;;;7.94;100.00
9784;BME280;4931;44.874;-1.092;2024-01-25T02:47:32;103240.31;;;7.89;100.00
9784;BME280;4931;44.874;-1.092;2024-01-25T02:49:58;103240.69;;;7.79;100.00
9784;BME280;4931;44.874;-1.092;2024-01-25T02:52:23;103240.22;;;7.75;100.00
9784;BME280;4931;44.874;-1.092;2024-01-25T02:54:49;103237.25;;;7.70;100.00
9784;BME280;4931;44.874;-1.092;2024-01-25T02:57:15;103242.72;;;7.70;100.00
9784;BME280;4931;44.874;-1.092;2024-01-25T02:59:41;103238.53;;;7.74;100.00
9784;BME280;4931;44.874;-1.092;2024-01-25T03:02:07;103250.75;;;7.78;100.00
9784;BME280;4931;44.874;-1.092;2024-01-25T03:04:32;103244.03;;;7.81;100.00
9784;BME280;4931;44.874;-1.092;2024-01-25T03:06:58;103240.72;;;7.86;100.00
9784;BME280;4931;44.874;-1.092;2024-01-25T03:09:23;103238.81;;;7.86;100.00
9784;BME280;4931;44.874;-1.092;2024-01-25T03:11:49;103228.69;;;7.80;100.00
9784;BME280;4931;44.874;-1.092;2024-01-25T03:14:14;103219.44;;;7.81;100.00
9784;BME280;4931;44.874;-1.092;2024-01-25T03:16:40;103219.66;;;7.79;100.00
9784;BME280;4931;44.874;-1.092;2024-01-25T03:19:05;103216.28;;;7.77;100.00
9784;BME280;4931;44.874;-1.092;2024-01-25T03:21:31;103215.16;;;7.65;100.00
9784;BME280;4931;44.874;-1.092;2024-01-25T03:23:56;103206.94;;;7.65;100.00
9784;BME280;4931;44.874;-1.092;2024-01-25T03:26:21;103200.66;;;7.64;100.00
9784;BME280;4931;44.874;-1.092;2024-01-25T03:28:47;103193.47;;;7.57;100.00
9784;BME280;4931;44.874;-1.092;2024-01-25T03:31:12;103182.91;;;7.54;100.00
9784;BME280;4931;44.874;-1.092;2024-01-25T03:33:38;103182.91;;;7.54;100.00
9784;BME280;4931;44.874;-1.092;2024-01-25T03:36:04;103185.72;;;7.60;100.00
9784;BME280;4931;44.874;-1.092;2024-01-25T03:38:30;103180.03;;;7.62;100.00
9784;BME280;4931;44.874;-1.092;2024-01-25T03:40:56;103169.50;;;7.59;100.00
9784;BME280;4931;44.874;-1.092;2024-01-25T03:43:23;103172.84;;;7.54;100.00
9784;BME280;4931;44.874;-1.092;2024-01-25T03:45:49;103161.31;;;7.59;100.00
9784;BME280;4931;44.874;-1.092;2024-01-25T03:48:15;103151.81;;;7.55;100.00
9784;BME280;4931;44.874;-1.092;2024-01-25T03:50:40;103155.59;;;7.54;100.00
9784;BME280;4931;44.874;-1.092;2024-01-25T03:53:06;103150.59;;;7.57;100.00
9784;BME280;4931;44.874;-1.092;2024-01-25T03:55:32;103150.34;;;7.52;100.00
9784;BME280;4931;44.874;-1.092;2024-01-25T03:57:58;103150.34;;;7.52;100.00
9784;BME280;4931;44.874;-1.092;2024-01-25T04:00:23;103146.38;;;7.55;100.00
9784;BME280;4931;44.874;-1.092;2024-01-25T04:02:48;103136.31;;;7.55;100.00
9784;BME280;4931;44.874;-1.092;2024-01-25T04:05:14;103141.78;;;7.62;100.00
9784;BME280;4931;44.874;-1.092;2024-01-25T04:07:39;103141.78;;;7.62;100.00
9784;BME280;4931;44.874;-1.092;2024-01-25T04:10:05;103138.66;;;7.65;100.00
9784;BME280;4931;44.874;-1.092;2024-01-25T04:12:31;103134.03;;;7.65;100.00
9784;BME280;4931;44.874;-1.092;2024-01-25T04:14:58;103139.94;;;7.69;100.00
9784;BME280;4931;44.874;-1.092;2024-01-25T04:17:24;103135.31;;;7.63;100.00
9784;BME280;4931;44.874;-1.092;2024-01-25T04:19:49;103132.09;;;7.53;100.00
9784;BME280;4931;44.874;-1.092;2024-01-25T04:22:14;103121.16;;;7.53;100.00
9784;BME280;4931;44.874;-1.092;2024-01-25T04:24:40;103130.63;;;7.57;100.00
9784;BME280;4931;44.874;-1.092;2024-01-25T04:27:05;103142.63;;;7.62;100.00
9784;BME280;4931;44.874;-1.092;2024-01-25T04:29:31;103145.97;;;7.58;100.00
9784;BME280;4931;44.874;-1.092;2024-01-25T04:31:56;103147.66;;;7.59;100.00
9784;BME280;4931;44.874;-1.092;2024-01-25T04:34:22;103134.56;;;7.47;100.00
9784;BME280;4931;44.874;-1.092;2024-01-25T04:36:47;103132.88;;;7.46;100.00
9784;BME280;4931;44.874;-1.092;2024-01-25T04:39:13;103134.56;;;7.47;100.00
9784;BME280;4931;44.874;-1.092;2024-01-25T04:41:38;103142.56;;;7.49;100.00
9784;BME280;4931;44.874;-1.092;2024-01-25T04:44:04;103143.59;;;7.48;100.00
9784;BME280;4931;44.874;-1.092;2024-01-25T04:46:29;103147.66;;;7.59;100.00
9784;BME280;4931;44.874;-1.092;2024-01-25T04:49:00;103156.75;;;7.66;100.00
9784;BME280;4931;44.874;-1.092;2024-01-25T04:51:26;103149.59;;;7.65;100.00
9784;BME280;4931;44.874;-1.092;2024-01-25T04:53:52;103150.00;;;7.62;100.00
9784;BME280;4931;44.874;-1.092;2024-01-25T04:56:17;103149.38;;;7.67;100.00
9784;BME280;4931;44.874;-1.092;2024-01-25T04:58:43;103146.44;;;7.68;100.00
9784;BME280;4931;44.874;-1.092;2024-01-25T05:01:08;103151.03;;;7.61;100.00
9784;BME280;4931;44.874;-1.092;2024-01-25T05:03:33;103148.97;;;7.63;100.00
9784;BME280;4931;44.874;-1.092;2024-01-25T05:05:59;103142.59;;;7.56;100.00
9784;BME280;4931;44.874;-1.092;2024-01-25T05:08:25;103134.09;;;7.37;100.00
9784;BME280;4931;44.874;-1.092;2024-01-25T05:10:50;103128.22;;;7.40;100.00
9784;BME280;4931;44.874;-1.092;2024-01-25T05:13:15;103127.81;;;7.43;100.00
9784;BME280;4931;44.874;-1.092;2024-01-25T05:15:41;103123.44;;;7.49;100.00
9784;BME280;4931;44.874;-1.092;2024-01-25T05:18:07;103123.88;;;7.53;100.00
9784;BME280;4931;44.874;-1.092;2024-01-25T05:20:32;103122.81;;;7.54;100.00
9784;BME280;4931;44.874;-1.092;2024-01-25T05:22:59;103122.41;;;7.50;100.00
9784;BME280;4931;44.874;-1.092;2024-01-25T05:25:25;103120.72;;;7.49;100.00
9784;BME280;4931;44.874;-1.092;2024-01-25T05:27:54;103118.56;;;7.44;100.00
9784;BME280;4931;44.874;-1.092;2024-01-25T05:30:20;103121.50;;;7.43;100.00
9784;BME280;4931;44.874;-1.092;2024-01-25T05:32:46;103120.66;;;7.42;100.00
9784;BME280;4931;44.874;-1.092;2024-01-25T05:35:13;103113.09;;;7.44;100.00
9784;BME280;4931;44.874;-1.092;2024-01-25T05:37:39;103111.38;;;7.37;100.00
9784;BME280;4931;44.874;-1.092;2024-01-25T05:40:05;103113.06;;;7.38;100.00
9784;BME280;4931;44.874;-1.092;2024-01-25T05:42:30;103111.81;;;7.40;100.00
9784;BME280;4931;44.874;-1.092;2024-01-25T05:44:57;103109.34;;;7.45;100.00
9784;BME280;4931;44.874;-1.092;2024-01-25T05:47:23;103108.94;;;7.48;100.00
9784;BME280;4931;44.874;-1.092;2024-01-25T05:49:48;103108.75;;;7.50;100.00
9784;BME280;4931;44.874;-1.092;2024-01-25T05:52:13;103100.97;;;7.54;100.00
9784;BME280;4931;44.874;-1.092;2024-01-25T05:54:39;103106.50;;;7.60;100.00
9784;BME280;4931;44.874;-1.092;2024-01-25T05:57:05;103110.72;;;7.63;100.00
9784;BME280;4931;44.874;-1.092;2024-01-25T05:59:30;103108.19;;;7.68;100.00
9784;BME280;4931;44.874;-1.092;2024-01-25T06:01:56;103107.81;;;7.71;100.00
9784;BME280;4931;44.874;-1.092;2024-01-25T06:04:21;103104.63;;;7.68;100.00
9784;BME280;4931;44.874;-1.092;2024-01-25T06:06:47;103113.66;;;7.68;100.00
9784;BME280;4931;44.874;-1.092;2024-01-25T06:09:12;103129.66;;;7.71;100.00
9784;BME280;4931;44.874;-1.092;2024-01-25T06:11:39;103135.75;;;7.73;100.00
9784;BME280;4931;44.874;-1.092;2024-01-25T06:14:05;103138.47;;;7.73;100.00
9784;BME280;4931;44.874;-1.092;2024-01-25T06:16:31;103150.06;;;7.75;100.00
9784;BME280;4931;44.874;-1.092;2024-01-25T06:18:56;103145.63;;;7.74;100.00
9784;BME280;4931;44.874;-1.092;2024-01-25T06:21:22;103150.50;;;7.79;100.00
9784;BME280;4931;44.874;-1.092;2024-01-25T06:23:47;103154.06;;;7.79;100.00
9784;BME280;4931;44.874;-1.092;2024-01-25T06:26:12;103145.63;;;7.74;100.00
9784;BME280;4931;44.874;-1.092;2024-01-25T06:28:38;103151.09;;;7.74;100.00
9784;BME280;4931;44.874;-1.092;2024-01-25T06:31:04;103149.84;;;7.77;100.00
9784;BME280;4931;44.874;-1.092;2024-01-25T06:33:29;103144.81;;;7.74;100.00
9784;BME280;4931;44.874;-1.092;2024-01-25T06:35:56;103152.56;;;7.70;100.00
9784;BME280;4931;44.874;-1.092;2024-01-25T06:38:21;103160.97;;;7.69;100.00
9784;BME280;4931;44.874;-1.092;2024-01-25T06:40:47;103160.31;;;7.67;100.00
9784;BME280;4931;44.874;-1.092;2024-01-25T06:43:12;103156.97;;;7.71;100.00
9784;BME280;4931;44.874;-1.092;2024-01-25T06:45:37;103160.97;;;7.69;100.00
9784;BME280;4931;44.874;-1.092;2024-01-25T06:48:06;103157.38;;;7.68;100.00
9784;BME280;4931;44.874;-1.092;2024-01-25T06:50:32;103160.75;;;7.70;100.00
9784;BME280;4931;44.874;-1.092;2024-01-25T06:52:58;103163.69;;;7.69;100.00
9784;BME280;4931;44.874;-1.092;2024-01-25T06:55:24;103166.88;;;7.72;100.00
9784;BME280;4931;44.874;-1.092;2024-01-25T06:57:49;103171.25;;;7.73;100.00
9784;BME280;4931;44.874;-1.092;2024-01-25T07:00:15;103163.66;;;7.62;100.00
9784;BME280;4931;44.874;-1.092;2024-01-25T07:02:41;103160.31;;;7.67;100.00
9784;BME280;4931;44.874;-1.092;2024-01-25T07:05:08;103169.53;;;7.65;100.00
9784;BME280;4931;44.874;-1.092;2024-01-25T07:07:39;103171.22;;;7.67;100.00
9784;BME280;4931;44.874;-1.092;2024-01-25T07:10:08;103166.63;;;7.67;100.00
9784;BME280;4931;44.874;-1.092;2024-01-25T07:12:34;103173.75;;;7.68;100.00
9784;BME280;4931;44.874;-1.092;2024-01-25T07:14:59;103166.22;;;7.70;100.00
9784;BME280;4931;44.874;-1.092;2024-01-25T07:17:25;103169.16;;;7.69;100.00
9784;BME280;4931;44.874;-1.092;2024-01-25T07:19:50;103169.59;;;7.72;100.00
9784;BME280;4931;44.874;-1.092;2024-01-25T07:22:16;103170.44;;;7.73;100.00
9784;BME280;4931;44.874;-1.092;2024-01-25T07:24:43;103162.25;;;7.73;100.00
9784;BME280;4931;44.874;-1.092;2024-01-25T07:27:09;103161.66;;;7.77;100.00
9784;BME280;4931;44.874;-1.092;2024-01-25T07:29:36;103166.44;;;7.75;100.00
9784;BME280;4931;44.874;-1.092;2024-01-25T07:32:02;103161.19;;;7.74;100.00
9784;BME280;4931;44.874;-1.092;2024-01-25T07:34:28;103166.66;;;7.74;100.00
9784;BME280;4931;44.874;-1.092;2024-01-25T07:36:53;103162.81;;;7.68;100.00
9784;BME280;4931;44.874;-1.092;2024-01-25T07:39:19;103160.34;;;7.73;100.00
9784;BME280;4931;44.874;-1.092;2024-01-25T07:41:44;103165.78;;;7.73;100.00
9784;BME280;4931;44.874;-1.092;2024-01-25T07:44:10;103162.88;;;7.75;100.00
9784;BME280;4931;44.874;-1.092;2024-01-25T07:46:35;103163.28;;;7.72;100.00
9784;BME280;4931;44.874;-1.092;2024-01-25T07:49:01;103156.97;;;7.71;100.00
9784;BME280;4931;44.874;-1.092;2024-01-25T07:51:26;103156.63;;;7.88;100.00
9784;BME280;4931;44.874;-1.092;2024-01-25T07:53:54;103160.19;;;7.81;100.00
9784;BME280;4931;44.874;-1.092;2024-01-25T07:56:19;103153.03;;;7.80;100.00
9784;BME280;4931;44.874;-1.092;2024-01-25T07:58:48;103156.19;;;7.77;100.00
9784;BME280;4931;44.874;-1.092;2024-01-25T08:01:17;103161.22;;;7.80;100.00
9784;BME280;4931;44.874;-1.092;2024-01-25T08:03:43;103153.63;;;7.76;100.00
9784;BME280;4931;44.874;-1.092;2024-01-25T08:06:09;103164.59;;;7.82;100.00
9784;BME280;4931;44.874;-1.092;2024-01-25T08:08:35;103170.06;;;7.82;100.00
9784;BME280;4931;44.874;-1.092;2024-01-25T08:11:00;103170.06;;;7.82;100.00
9784;BME280;4931;44.874;-1.092;2024-01-25T08:13:26;103178.47;;;7.88;100.00
9784;BME280;4931;44.874;-1.092;2024-01-25T08:15:53;103188.16;;;7.90;100.00
9784;BME280;4931;44.874;-1.092;2024-01-25T08:18:19;103177.66;;;7.87;100.00
9784;BME280;4931;44.874;-1.092;2024-01-25T08:20:45;103215.34;;;10.01;100.00
9784;BME280;4931;44.874;-1.092;2024-01-25T08:23:10;103178.38;;;8.85;100.00
9784;BME280;4931;44.874;-1.092;2024-01-25T08:25:36;103178.38;;;8.64;100.00
9784;BME280;4931;44.874;-1.092;2024-01-25T08:28:02;103178.34;;;8.51;100.00
9784;BME280;4931;44.874;-1.092;2024-01-25T08:30:27;103185.06;;;8.49;100.00
9784;BME280;4931;44.874;-1.092;2024-01-25T08:32:53;103189.19;;;8.38;100.00
9784;BME280;4931;44.874;-1.092;2024-01-25T08:35:18;103192.16;;;8.36;100.00
9784;BME280;4931;44.874;-1.092;2024-01-25T08:37:44;103212.88;;;9.79;100.00
9784;BME280;4931;44.874;-1.092;2024-01-25T08:40:10;103185.13;;;8.95;100.00
9784;BME280;4931;44.874;-1.092;2024-01-25T08:42:35;103191.66;;;8.81;100.00
9784;BME280;4931;44.874;-1.092;2024-01-25T08:45:01;103188.91;;;8.74;100.00
9784;BME280;4931;44.874;-1.092;2024-01-25T08:47:27;103191.47;;;8.83;100.00
9784;BME280;4931;44.874;-1.092;2024-01-25T08:49:52;103203.22;;;8.76;100.00
9784;BME280;4931;44.874;-1.092;2024-01-25T08:52:17;103211.22;;;8.78;100.00
9784;BME280;4931;44.874;-1.092;2024-01-25T08:54:43;103216.31;;;8.88;100.00
9784;BME280;4931;44.874;-1.092;2024-01-25T08:57:09;103222.63;;;9.02;100.00
9784;BME280;4931;44.874;-1.092;2024-01-25T08:59:34;103232.09;;;8.99;100.00
9784;BME280;4931;44.874;-1.092;2024-01-25T09:02:04;103243.28;;;9.11;100.00
9784;BME280;4931;44.874;-1.092;2024-01-25T09:04:31;103240.53;;;9.18;100.00
9784;BME280;4931;44.874;-1.092;2024-01-25T09:06:58;103247.72;;;9.32;100.00
9784;BME280;4931;44.874;-1.092;2024-01-25T09:09:23;103254.66;;;9.28;100.00
9784;BME280;4931;44.874;-1.092;2024-01-25T09:11:49;103255.53;;;9.35;100.00
9784;BME280;4931;44.874;-1.092;2024-01-25T09:14:14;103261.84;;;9.42;100.00
9784;BME280;4931;44.874;-1.092;2024-01-25T09:16:40;103256.34;;;9.42;100.00
9784;BME280;4931;44.874;-1.092;2024-01-25T09:19:05;103261.00;;;9.49;100.00
9784;BME280;4931;44.874;-1.092;2024-01-25T09:21:31;103271.94;;;9.62;100.00
9784;BME280;4931;44.874;-1.092;2024-01-25T09:23:56;103260.13;;;9.68;100.00
9784;BME280;4931;44.874;-1.092;2024-01-25T09:26:22;103266.22;;;9.70;100.00
9784;BME280;4931;44.874;-1.092;2024-01-25T09:28:47;103258.63;;;9.86;100.00
9784;BME280;4931;44.874;-1.092;2024-01-25T09:31:13;103259.03;;;9.96;100.00
9784;BME280;4931;44.874;-1.092;2024-01-25T09:33:38;103244.06;;;9.92;100.00
9784;BME280;4931;44.874;-1.092;2024-01-25T09:36:04;103249.97;;;9.95;100.00
9784;BME280;4931;44.874;-1.092;2024-01-25T09:38:29;103264.06;;;10.12;100.00
9784;BME280;4931;44.874;-1.092;2024-01-25T09:40:56;103261.25;;;10.26;100.00
9784;BME280;4931;44.874;-1.092;2024-01-25T09:43:21;103251.53;;;10.30;100.00
9784;BME280;4931;44.874;-1.092;2024-01-25T09:45:50;103254.91;;;10.39;100.00
9784;BME280;4931;44.874;-1.092;2024-01-25T09:48:17;103250.38;;;10.58;100.00
9784;BME280;4931;44.874;-1.092;2024-01-25T09:50:47;103243.56;;;11.06;100.00
9784;BME280;4931;44.874;-1.092;2024-01-25T09:53:21;103216.50;;;11.28;100.00
9784;BME280;4931;44.874;-1.092;2024-01-25T09:58:41;103179.22;;;11.39;100.00
9784;BME280;4931;44.874;-1.092;2024-01-25T10:01:11;103162.84;;;11.51;100.00
9784;BME280;4931;44.874;-1.092;2024-01-25T10:03:38;103154.19;;;11.66;100.00
9784;BME280;4931;44.874;-1.092;2024-01-25T10:06:06;103146.41;;;11.62;100.00
9784;BME280;4931;44.874;-1.092;2024-01-25T10:08:31;103118.84;;;11.69;100.00
9784;BME280;4931;44.874;-1.092;2024-01-25T10:10:57;103128.16;;;11.87;100.00
9784;BME280;4931;44.874;-1.092;2024-01-25T10:13:23;103124.94;;;12.08;100.00
9784;BME280;4931;44.874;-1.092;2024-01-25T10:15:48;103092.38;;;12.05;100.00
9784;BME280;4931;44.874;-1.092;2024-01-25T10:18:14;103087.16;;;12.16;100.00
9784;BME280;4931;44.874;-1.092;2024-01-25T10:20:41;103089.25;;;12.32;100.00
9784;BME280;4931;44.874;-1.092;2024-01-25T10:23:07;103092.06;;;12.56;100.00
9784;BME280;4931;44.874;-1.092;2024-01-25T10:25:37;103079.72;;;12.47;100.00
9784;BME280;4931;44.874;-1.092;2024-01-25T10:28:06;103081.28;;;12.42;100.00
9784;BME280;4931;44.874;-1.092;2024-01-25T10:30:33;103081.50;;;12.53;100.00
9784;BME280;4931;44.874;-1.092;2024-01-25T10:33:00;103078.06;;;12.69;100.00
9784;BME280;4931;44.874;-1.092;2024-01-25T10:35:26;103083.84;;;12.79;100.00
9784;BME280;4931;44.874;-1.092;2024-01-25T10:37:52;103088.59;;;12.72;100.00
9784;BME280;4931;44.874;-1.092;2024-01-25T10:40:21;103094.38;;;12.94;100.00
9784;BME280;4931;44.874;-1.092;2024-01-25T10:42:47;103078.81;;;13.12;100.00
9784;BME280;4931;44.874;-1.092;2024-01-25T10:45:13;103089.47;;;13.08;100.00
9784;BME280;4931;44.874;-1.092;2024-01-25T10:47:39;103083.47;;;13.11;100.00
9784;BME280;4931;44.874;-1.092;2024-01-25T10:50:11;103086.22;;;13.23;100.00
9784;BME280;4931;44.874;-1.092;2024-01-25T10:52:39;103083.13;;;13.43;100.00
9784;BME280;4931;44.874;-1.092;2024-01-25T10:55:06;103086.34;;;13.28;100.00
9784;BME280;4931;44.874;-1.092;2024-01-25T10:57:42;103082.16;;;13.38;100.00
9784;BME280;4931;44.874;-1.092;2024-01-25T11:00:13;103079.09;;;13.63;100.00
9784;BME280;4931;44.874;-1.092;2024-01-25T11:02:40;103081.28;;;13.61;100.00
9784;BME280;4931;44.874;-1.092;2024-01-25T11:05:11;103071.78;;;13.69;100.00
9784;BME280;4931;44.874;-1.092;2024-01-25T11:07:49;103072.59;;;13.69;100.00
9784;BME280;4931;44.874;-1.092;2024-01-25T11:10:22;103069.09;;;13.86;100.00
9784;BME280;4931;44.874;-1.092;2024-01-25T11:12:57;103058.09;;;14.03;100.00
9784;BME280;4931;44.874;-1.092;2024-01-25T11:15:33;103045.81;;;14.10;100.00
9784;BME280;4931;44.874;-1.092;2024-01-25T11:18:00;103046.94;;;14.43;100.00
9784;BME280;4931;44.874;-1.092;2024-01-25T11:20:27;103039.47;;;14.27;100.00
9784;BME280;4931;44.874;-1.092;2024-01-25T11:22:57;103036.47;;;14.45;100.00
9784;BME280;4931;44.874;-1.092;2024-01-25T11:25:27;103025.50;;;14.85;100.00
9784;BME280;4931;44.874;-1.092;2024-01-25T11:27:53;103023.63;;;14.68;100.00
9784;BME280;4931;44.874;-1.092;2024-01-25T11:30:19;103017.31;;;14.56;100.00
9784;BME280;4931;44.874;-1.092;2024-01-25T11:32:48;103017.22;;;14.85;100.00
9784;BME280;4931;44.874;-1.092;2024-01-25T11:35:15;103009.38;;;14.76;100.00
9784;BME280;4931;44.874;-1.092;2024-01-25T11:37:47;103019.34;;;14.77;100.00
9784;BME280;4931;44.874;-1.092;2024-01-25T11:40:14;103028.91;;;15.09;100.00
9784;BME280;4931;44.874;-1.092;2024-01-25T11:42:40;103023.28;;;15.48;100.00
9784;BME280;4931;44.874;-1.092;2024-01-25T11:45:08;103027.19;;;15.25;100.00
9784;BME280;4931;44.874;-1.092;2024-01-25T11:47:35;103023.56;;;15.47;100.00
9784;BME280;4931;44.874;-1.092;2024-01-25T11:50:01;103020.06;;;15.79;100.00
9784;BME280;4931;44.874;-1.092;2024-01-25T11:52:27;103020.88;;;15.79;100.00
9784;BME280;4931;44.874;-1.092;2024-01-25T11:54:52;103045.72;;;15.96;100.00
9784;BME280;4931;44.874;-1.092;2024-01-25T11:57:18;103057.50;;;16.14;100.00
9784;BME280;4931;44.874;-1.092;2024-01-25T11:59:44;103060.50;;;16.34;100.00
9784;BME280;4931;44.874;-1.092;2024-01-25T12:02:12;103051.69;;;16.42;100.00
9784;BME280;4931;44.874;-1.092;2024-01-25T12:04:39;103058.00;;;16.70;100.00
9784;BME280;4931;44.874;-1.092;2024-01-25T12:07:05;103042.25;;;16.76;100.00
9784;BME280;4931;44.874;-1.092;2024-01-25T12:09:30;103036.22;;;16.84;100.00
9784;BME280;4931;44.874;-1.092;2024-01-25T12:11:56;103034.63;;;16.93;100.00
9784;BME280;4931;44.874;-1.092;2024-01-25T12:14:23;103037.75;;;17.02;100.00
9784;BME280;4931;44.874;-1.092;2024-01-25T12:16:49;103033.31;;;17.06;100.00
9784;BME280;4931;44.874;-1.092;2024-01-25T12:19:15;103009.38;;;16.90;100.00
9784;BME280;4931;44.874;-1.092;2024-01-25T12:21:44;103008.94;;;17.08;100.00
9784;BME280;4931;44.874;-1.092;2024-01-25T12:24:09;103006.16;;;17.14;100.00
9784;BME280;4931;44.874;-1.092;2024-01-25T12:26:35;103008.72;;;17.25;100.00
9784;BME280;4931;44.874;-1.092;2024-01-25T12:29:01;103007.81;;;17.09;100.00
9784;BME280;4931;44.874;-1.092;2024-01-25T12:31:28;102992.41;;;17.34;100.00
9784;BME280;4931;44.874;-1.092;2024-01-25T12:33:54;102999.09;;;17.43;100.00
9784;BME280;4931;44.874;-1.092;2024-01-25T12:36:19;103000.78;;;17.50;100.00
9784;BME280;4931;44.874;-1.092;2024-01-25T12:38:44;103005.25;;;17.71;100.00
9784;BME280;4931;44.874;-1.092;2024-01-25T12:41:10;102990.53;;;17.66;100.00
9784;BME280;4931;44.874;-1.092;2024-01-25T12:43:36;102984.47;;;17.79;100.00
9784;BME280;4931;44.874;-1.092;2024-01-25T12:46:01;102988.63;;;17.82;100.00
9784;BME280;4931;44.874;-1.092;2024-01-25T12:48:27;102978.97;;;18.10;100.00
9784;BME280;4931;44.874;-1.092;2024-01-25T12:50:52;102971.91;;;17.46;100.00
9784;BME280;4931;44.874;-1.092;2024-01-25T12:53:18;102976.38;;;17.67;100.00
9784;BME280;4931;44.874;-1.092;2024-01-25T12:55:43;102959.19;;;17.81;100.00